Terminal Aerodrome Forecast
Issued by NWS Sterling, VA

Home | Current Version | Previous Version | Text Only | Print | Product List | Glossary On
Versions: 1 2 3 4 5 6 7 8 9 10 11 12 13 14 15 16 17 18 19 20 21 22
000
FTUS41 KLWX 012300
TAFMRB
TAF
KMRB 012320Z 0200/0224 00000KT P6SM SCT040
     FM020200 00000KT P6SM SCT140
     FM020300 00000KT 3SM BR SCT250
     FM020600 00000KT 2SM BR SCT010 BKN250
     FM021400 00000KT 5SM BR FEW010 SCT020
     FM021500 00000KT P6SM SCT020
     FM022000 13005KT P6SM SCT250=

USA.gov is the U.S. government's official web portal to all federal, state and local government web resources and services.